sensor_id;sensor_type;location;lat;lon;timestamp;pressure;altitude;pressure_sealevel;temperature;humidity
37066;BME280;22981;43.080;25.550;2023-04-08T00:02:10;99908.97;;;7.05;64.42
37066;BME280;22981;43.080;25.550;2023-04-08T00:04:37;99916.45;;;7.05;64.55
37066;BME280;22981;43.080;25.550;2023-04-08T00:07:05;99915.00;;;7.02;64.68
37066;BME280;22981;43.080;25.550;2023-04-08T00:09:33;99910.16;;;7.02;64.86
37066;BME280;22981;43.080;25.550;2023-04-08T00:12:01;99906.16;;;7.02;64.97
37066;BME280;22981;43.080;25.550;2023-04-08T00:14:28;99907.33;;;7.03;65.01
37066;BME280;22981;43.080;25.550;2023-04-08T00:16:56;99912.45;;;7.05;65.04
37066;BME280;22981;43.080;25.550;2023-04-08T00:19:23;99912.45;;;7.05;65.12
37066;BME280;22981;43.080;25.550;2023-04-08T00:21:51;99903.64;;;7.05;65.21
37066;BME280;22981;43.080;25.550;2023-04-08T00:24:19;99900.98;;;7.05;65.26
37066;BME280;22981;43.080;25.550;2023-04-08T00:26:46;99898.01;;;7.03;65.41
37066;BME280;22981;43.080;25.550;2023-04-08T00:29:14;99901.55;;;7.00;65.65
37066;BME280;22981;43.080;25.550;2023-04-08T00:31:41;99900.21;;;7.00;65.82
37066;BME280;22981;43.080;25.550;2023-04-08T00:34:09;99893.24;;;6.99;65.94
37066;BME280;22981;43.080;25.550;2023-04-08T00:36:37;99893.75;;;6.98;66.02
37066;BME280;22981;43.080;25.550;2023-04-08T00:39:04;99886.59;;;6.99;66.08
37066;BME280;22981;43.080;25.550;2023-04-08T00:41:33;99897.05;;;7.00;66.08
37066;BME280;22981;43.080;25.550;2023-04-08T00:44:01;99891.91;;;6.99;66.08
37066;BME280;22981;43.080;25.550;2023-04-08T00:46:32;99887.92;;;6.99;66.12
37066;BME280;22981;43.080;25.550;2023-04-08T00:48:59;99881.58;;;7.00;66.11
37066;BME280;22981;43.080;25.550;2023-04-08T00:51:30;99873.59;;;7.00;66.05
37066;BME280;22981;43.080;25.550;2023-04-08T00:53:59;99878.77;;;6.97;65.98
37066;BME280;22981;43.080;25.550;2023-04-08T00:56:26;99881.94;;;6.97;65.96
37066;BME280;22981;43.080;25.550;2023-04-08T00:58:54;99881.27;;;6.99;65.80
37066;BME280;22981;43.080;25.550;2023-04-08T01:01:42;99881.58;;;7.00;65.67
37066;BME280;22981;43.080;25.550;2023-04-08T01:04:27;99881.27;;;6.99;65.63
37066;BME280;22981;43.080;25.550;2023-04-08T01:09:44;99873.07;;;6.90;65.80
37066;BME280;22981;43.080;25.550;2023-04-08T01:12:12;99869.39;;;6.91;65.94
37066;BME280;22981;43.080;25.550;2023-04-08T01:14:42;99876.36;;;6.92;66.02
37066;BME280;22981;43.080;25.550;2023-04-08T01:17:11;99879.33;;;6.93;66.06
37066;BME280;22981;43.080;25.550;2023-04-08T01:19:40;99883.52;;;6.91;66.16
37066;BME280;22981;43.080;25.550;2023-04-08T01:22:26;99877.38;;;6.91;66.22
37066;BME280;22981;43.080;25.550;2023-04-08T01:25:08;99876.55;;;6.90;66.20
37066;BME280;22981;43.080;25.550;2023-04-08T01:27:35;99874.88;;;6.89;66.09
37066;BME280;22981;43.080;25.550;2023-04-08T01:30:04;99875.59;;;6.87;66.11
37066;BME280;22981;43.080;25.550;2023-04-08T01:32:33;99875.89;;;6.88;66.10
37066;BME280;22981;43.080;25.550;2023-04-08T01:35:02;99876.41;;;6.88;66.15
37066;BME280;22981;43.080;25.550;2023-04-08T01:37:30;99881.92;;;6.86;66.23
37066;BME280;22981;43.080;25.550;2023-04-08T01:40:01;99881.61;;;6.85;66.28
37066;BME280;22981;43.080;25.550;2023-04-08T01:42:29;99886.59;;;6.84;66.40
37066;BME280;22981;43.080;25.550;2023-04-08T01:44:58;99885.97;;;6.82;66.50
37066;BME280;22981;43.080;25.550;2023-04-08T01:47:27;99877.67;;;6.81;66.60
37066;BME280;22981;43.080;25.550;2023-04-08T01:49:57;99878.14;;;6.81;66.69
37066;BME280;22981;43.080;25.550;2023-04-08T01:52:26;99873.33;;;6.80;66.77
37066;BME280;22981;43.080;25.550;2023-04-08T01:54:55;99873.17;;;6.82;66.74
37066;BME280;22981;43.080;25.550;2023-04-08T01:57:25;99872.16;;;6.83;66.71
37066;BME280;22981;43.080;25.550;2023-04-08T01:59:55;99872.77;;;6.85;66.67
37066;BME280;22981;43.080;25.550;2023-04-08T02:02:24;99874.61;;;6.84;66.69
37066;BME280;22981;43.080;25.550;2023-04-08T02:04:54;99871.33;;;6.82;66.75
37066;BME280;22981;43.080;25.550;2023-04-08T02:07:22;99867.84;;;6.82;66.79
37066;BME280;22981;43.080;25.550;2023-04-08T02:09:50;99868.02;;;6.80;66.82
37066;BME280;22981;43.080;25.550;2023-04-08T02:12:18;99875.12;;;6.84;66.77
37066;BME280;22981;43.080;25.550;2023-04-08T02:14:46;99871.02;;;6.81;66.66
37066;BME280;22981;43.080;25.550;2023-04-08T02:17:24;99866.05;;;6.78;66.77
37066;BME280;22981;43.080;25.550;2023-04-08T02:19:59;99868.20;;;6.78;66.88
37066;BME280;22981;43.080;25.550;2023-04-08T02:25:15;99866.92;;;6.74;67.08
37066;BME280;22981;43.080;25.550;2023-04-08T02:27:39;99863.64;;;6.72;67.20
37066;BME280;22981;43.080;25.550;2023-04-08T02:30:11;99868.61;;;6.71;67.34
37066;BME280;22981;43.080;25.550;2023-04-08T02:32:39;99861.34;;;6.69;67.48
37066;BME280;22981;43.080;25.550;2023-04-08T02:35:09;99860.52;;;6.69;67.63
37066;BME280;22981;43.080;25.550;2023-04-08T02:37:37;99859.35;;;6.67;67.72
37066;BME280;22981;43.080;25.550;2023-04-08T02:40:22;99856.58;;;6.65;67.91
37066;BME280;22981;43.080;25.550;2023-04-08T02:42:50;99852.48;;;6.58;68.21
37066;BME280;22981;43.080;25.550;2023-04-08T02:45:18;99862.66;;;6.55;68.42
37066;BME280;22981;43.080;25.550;2023-04-08T02:47:47;99857.02;;;6.53;68.60
37066;BME280;22981;43.080;25.550;2023-04-08T02:50:14;99861.88;;;6.50;68.78
37066;BME280;22981;43.080;25.550;2023-04-08T02:52:42;99865.75;;;6.47;68.96
37066;BME280;22981;43.080;25.550;2023-04-08T02:55:10;99870.05;;;6.48;69.06
37066;BME280;22981;43.080;25.550;2023-04-08T02:57:39;99867.59;;;6.47;69.09
37066;BME280;22981;43.080;25.550;2023-04-08T03:00:08;99873.42;;;6.42;69.17
37066;BME280;22981;43.080;25.550;2023-04-08T03:02:36;99878.31;;;6.39;69.32
37066;BME280;22981;43.080;25.550;2023-04-08T03:05:03;99870.65;;;6.40;69.42
37066;BME280;22981;43.080;25.550;2023-04-08T03:07:32;99873.94;;;6.42;69.40
37066;BME280;22981;43.080;25.550;2023-04-08T03:10:00;99866.30;;;6.43;69.37
37066;BME280;22981;43.080;25.550;2023-04-08T03:12:27;99876.23;;;6.45;69.32
37066;BME280;22981;43.080;25.550;2023-04-08T03:14:56;99875.61;;;6.43;69.34
37066;BME280;22981;43.080;25.550;2023-04-08T03:17:24;99873.27;;;6.44;69.39
37066;BME280;22981;43.080;25.550;2023-04-08T03:19:51;99871.78;;;6.41;69.38
37066;BME280;22981;43.080;25.550;2023-04-08T03:22:19;99879.13;;;6.39;69.40
37066;BME280;22981;43.080;25.550;2023-04-08T03:24:47;99874.17;;;6.36;69.43
37066;BME280;22981;43.080;25.550;2023-04-08T03:27:14;99879.02;;;6.33;69.50
37066;BME280;22981;43.080;25.550;2023-04-08T03:29:42;99879.41;;;6.30;69.63
37066;BME280;22981;43.080;25.550;2023-04-08T03:32:11;99882.89;;;6.30;69.75
37066;BME280;22981;43.080;25.550;2023-04-08T03:34:38;99881.52;;;6.34;69.68
37066;BME280;22981;43.080;25.550;2023-04-08T03:37:06;99890.95;;;6.37;69.63
37066;BME280;22981;43.080;25.550;2023-04-08T03:39:34;99888.80;;;6.36;69.65
37066;BME280;22981;43.080;25.550;2023-04-08T03:42:01;99899.63;;;6.35;69.79
37066;BME280;22981;43.080;25.550;2023-04-08T03:44:29;99898.61;;;6.36;69.84
37066;BME280;22981;43.080;25.550;2023-04-08T03:46:57;99899.94;;;6.36;69.91
37066;BME280;22981;43.080;25.550;2023-04-08T03:49:24;99895.44;;;6.36;69.93
37066;BME280;22981;43.080;25.550;2023-04-08T03:51:52;99891.96;;;6.36;70.06
37066;BME280;22981;43.080;25.550;2023-04-08T03:54:19;99894.94;;;6.37;70.10
37066;BME280;22981;43.080;25.550;2023-04-08T03:56:48;99897.59;;;6.37;70.09
37066;BME280;22981;43.080;25.550;2023-04-08T03:59:16;99905.30;;;6.32;70.17
37066;BME280;22981;43.080;25.550;2023-04-08T04:01:43;99902.39;;;6.22;70.37
37066;BME280;22981;43.080;25.550;2023-04-08T04:04:11;99909.70;;;6.20;70.60
37066;BME280;22981;43.080;25.550;2023-04-08T04:06:39;99910.77;;;6.15;70.67
37066;BME280;22981;43.080;25.550;2023-04-08T04:09:07;99912.95;;;6.12;70.86
37066;BME280;22981;43.080;25.550;2023-04-08T04:11:35;99916.42;;;6.12;70.91
37066;BME280;22981;43.080;25.550;2023-04-08T04:14:03;99912.95;;;6.12;70.93
37066;BME280;22981;43.080;25.550;2023-04-08T04:16:30;99913.95;;;6.11;71.07
37066;BME280;22981;43.080;25.550;2023-04-08T04:18:58;99913.30;;;6.13;71.03
37066;BME280;22981;43.080;25.550;2023-04-08T04:21:25;99921.39;;;6.15;70.99
37066;BME280;22981;43.080;25.550;2023-04-08T04:23:53;99917.72;;;6.16;70.92
37066;BME280;22981;43.080;25.550;2023-04-08T04:26:21;99917.09;;;6.14;70.97
37066;BME280;22981;43.080;25.550;2023-04-08T04:28:48;99925.73;;;6.12;70.99
37066;BME280;22981;43.080;25.550;2023-04-08T04:31:20;99929.41;;;6.11;71.09
37066;BME280;22981;43.080;25.550;2023-04-08T04:33:48;99926.42;;;6.10;71.12
37066;BME280;22981;43.080;25.550;2023-04-08T04:36:16;99931.23;;;6.11;71.06
37066;BME280;22981;43.080;25.550;2023-04-08T04:38:45;99930.73;;;6.11;71.10
37066;BME280;22981;43.080;25.550;2023-04-08T04:41:12;99932.37;;;6.12;71.07
37066;BME280;22981;43.080;25.550;2023-04-08T04:43:40;99938.04;;;6.13;71.05
37066;BME280;22981;43.080;25.550;2023-04-08T04:46:08;99936.33;;;6.16;71.02
37066;BME280;22981;43.080;25.550;2023-04-08T04:48:36;99935.16;;;6.19;70.95
37066;BME280;22981;43.080;25.550;2023-04-08T04:51:03;99940.63;;;6.21;70.91
37066;BME280;22981;43.080;25.550;2023-04-08T04:53:32;99937.47;;;6.22;70.87
37066;BME280;22981;43.080;25.550;2023-04-08T04:56:00;99939.58;;;6.26;70.83
37066;BME280;22981;43.080;25.550;2023-04-08T04:58:28;99937.91;;;6.30;70.65
37066;BME280;22981;43.080;25.550;2023-04-08T05:00:56;99932.75;;;6.28;70.61
37066;BME280;22981;43.080;25.550;2023-04-08T05:03:23;99935.59;;;6.26;70.70
37066;BME280;22981;43.080;25.550;2023-04-08T05:05:52;99937.43;;;6.26;70.77
37066;BME280;22981;43.080;25.550;2023-04-08T05:08:20;99940.09;;;6.26;70.78
37066;BME280;22981;43.080;25.550;2023-04-08T05:10:48;99940.44;;;6.23;70.87
37066;BME280;22981;43.080;25.550;2023-04-08T05:13:16;99940.28;;;6.20;70.89
37066;BME280;22981;43.080;25.550;2023-04-08T05:15:44;99940.98;;;6.18;70.94
37066;BME280;22981;43.080;25.550;2023-04-08T05:18:12;99940.28;;;6.20;70.99
37066;BME280;22981;43.080;25.550;2023-04-08T05:20:39;99948.58;;;6.25;70.94
37066;BME280;22981;43.080;25.550;2023-04-08T05:23:07;99942.59;;;6.23;70.98
37066;BME280;22981;43.080;25.550;2023-04-08T05:25:34;99950.25;;;6.22;71.03
37066;BME280;22981;43.080;25.550;2023-04-08T05:28:02;99951.58;;;6.22;71.05
37066;BME280;22981;43.080;25.550;2023-04-08T05:30:30;99950.92;;;6.20;71.15
37066;BME280;22981;43.080;25.550;2023-04-08T05:32:58;99946.58;;;6.23;71.24
37066;BME280;22981;43.080;25.550;2023-04-08T05:35:26;99945.02;;;6.29;71.24
37066;BME280;22981;43.080;25.550;2023-04-08T05:37:53;99944.33;;;6.35;71.15
37066;BME280;22981;43.080;25.550;2023-04-08T05:40:21;99948.40;;;6.42;71.02
37066;BME280;22981;43.080;25.550;2023-04-08T05:42:48;99944.52;;;6.48;70.92
37066;BME280;22981;43.080;25.550;2023-04-08T05:45:16;99948.60;;;6.55;70.88
37066;BME280;22981;43.080;25.550;2023-04-08T05:47:43;99939.20;;;6.63;70.68
37066;BME280;22981;43.080;25.550;2023-04-08T05:50:11;99945.66;;;6.69;70.56
37066;BME280;22981;43.080;25.550;2023-04-08T05:52:43;99942.76;;;6.74;70.45
37066;BME280;22981;43.080;25.550;2023-04-08T05:55:14;99941.38;;;6.78;70.28
37066;BME280;22981;43.080;25.550;2023-04-08T05:57:41;99940.02;;;6.83;70.16
37066;BME280;22981;43.080;25.550;2023-04-08T06:00:10;99946.94;;;6.88;70.01
37066;BME280;22981;43.080;25.550;2023-04-08T06:02:38;99944.69;;;6.95;69.94
37066;BME280;22981;43.080;25.550;2023-04-08T06:05:05;99940.92;;;7.05;69.82
37066;BME280;22981;43.080;25.550;2023-04-08T06:07:33;99946.14;;;7.13;69.59
37066;BME280;22981;43.080;25.550;2023-04-08T06:10:01;99946.14;;;7.13;69.39
37066;BME280;22981;43.080;25.550;2023-04-08T06:12:30;99947.11;;;7.16;69.35
37066;BME280;22981;43.080;25.550;2023-04-08T06:14:58;99944.83;;;7.23;69.20
37066;BME280;22981;43.080;25.550;2023-04-08T06:17:25;99946.06;;;7.32;68.81
37066;BME280;22981;43.080;25.550;2023-04-08T06:19:53;99942.26;;;7.30;68.48
37066;BME280;22981;43.080;25.550;2023-04-08T06:22:21;99946.45;;;7.28;68.33
37066;BME280;22981;43.080;25.550;2023-04-08T06:24:48;99946.97;;;7.28;68.15
37066;BME280;22981;43.080;25.550;2023-04-08T06:27:16;99948.61;;;7.29;68.22
37066;BME280;22981;43.080;25.550;2023-04-08T06:29:43;99948.50;;;7.37;68.12
37066;BME280;22981;43.080;25.550;2023-04-08T06:32:11;99947.23;;;7.44;67.99
37066;BME280;22981;43.080;25.550;2023-04-08T06:34:39;99953.47;;;7.51;67.70
37066;BME280;22981;43.080;25.550;2023-04-08T06:37:07;99948.45;;;7.52;67.50
37066;BME280;22981;43.080;25.550;2023-04-08T06:39:34;99948.54;;;7.59;67.33
37066;BME280;22981;43.080;25.550;2023-04-08T06:42:02;99955.97;;;7.63;67.07
37066;BME280;22981;43.080;25.550;2023-04-08T06:44:30;99957.25;;;7.67;66.88
37066;BME280;22981;43.080;25.550;2023-04-08T06:46:57;99950.69;;;7.70;66.65
37066;BME280;22981;43.080;25.550;2023-04-08T06:49:25;99954.13;;;7.74;66.57
37066;BME280;22981;43.080;25.550;2023-04-08T06:51:52;99954.97;;;7.86;66.52
37066;BME280;22981;43.080;25.550;2023-04-08T06:54:20;99955.16;;;7.95;66.23
37066;BME280;22981;43.080;25.550;2023-04-08T06:56:48;99961.62;;;7.96;65.74
37066;BME280;22981;43.080;25.550;2023-04-08T06:59:15;99963.80;;;7.97;65.50
37066;BME280;22981;43.080;25.550;2023-04-08T07:01:43;99956.37;;;7.92;65.35
37066;BME280;22981;43.080;25.550;2023-04-08T07:04:11;99959.46;;;7.96;65.43
37066;BME280;22981;43.080;25.550;2023-04-08T07:06:38;99962.52;;;8.03;65.11
37066;BME280;22981;43.080;25.550;2023-04-08T07:09:06;99960.88;;;8.02;64.92
37066;BME280;22981;43.080;25.550;2023-04-08T07:11:34;99966.97;;;8.07;64.93
37066;BME280;22981;43.080;25.550;2023-04-08T07:14:02;99959.72;;;8.12;64.67
37066;BME280;22981;43.080;25.550;2023-04-08T07:16:29;99972.48;;;8.16;64.45
37066;BME280;22981;43.080;25.550;2023-04-08T07:18:57;99971.39;;;8.21;64.30
37066;BME280;22981;43.080;25.550;2023-04-08T07:21:24;99973.55;;;8.22;64.23
37066;BME280;22981;43.080;25.550;2023-04-08T07:23:52;99971.66;;;8.26;64.46
37066;BME280;22981;43.080;25.550;2023-04-08T07:26:19;99968.42;;;8.31;64.42
37066;BME280;22981;43.080;25.550;2023-04-08T07:28:47;99976.63;;;8.40;64.33
37066;BME280;22981;43.080;25.550;2023-04-08T07:31:16;99971.91;;;8.53;64.27
37066;BME280;22981;43.080;25.550;2023-04-08T07:33:45;99974.02;;;8.64;64.15
37066;BME280;22981;43.080;25.550;2023-04-08T07:36:13;99974.52;;;8.74;63.90
37066;BME280;22981;43.080;25.550;2023-04-08T07:38:40;99972.52;;;8.83;63.73
37066;BME280;22981;43.080;25.550;2023-04-08T07:41:08;99971.14;;;8.94;63.32
37066;BME280;22981;43.080;25.550;2023-04-08T07:43:36;99972.02;;;9.01;62.99
37066;BME280;22981;43.080;25.550;2023-04-08T07:46:05;99970.61;;;9.12;63.00
37066;BME280;22981;43.080;25.550;2023-04-08T07:48:33;99975.53;;;9.25;63.05
37066;BME280;22981;43.080;25.550;2023-04-08T07:51:05;99966.62;;;9.36;62.62
37066;BME280;22981;43.080;25.550;2023-04-08T07:53:33;99963.87;;;9.40;62.31
37066;BME280;22981;43.080;25.550;2023-04-08T07:56:01;99966.25;;;9.45;62.27
37066;BME280;22981;43.080;25.550;2023-04-08T07:58:32;99961.45;;;9.51;61.87
37066;BME280;22981;43.080;25.550;2023-04-08T08:00:59;99967.53;;;9.56;61.88
37066;BME280;22981;43.080;25.550;2023-04-08T08:03:27;99965.38;;;9.62;61.84
37066;BME280;22981;43.080;25.550;2023-04-08T08:05:54;99969.85;;;9.72;61.72
37066;BME280;22981;43.080;25.550;2023-04-08T08:08:22;99968.13;;;9.82;61.61
37066;BME280;22981;43.080;25.550;2023-04-08T08:10:49;99965.87;;;9.92;61.55
37066;BME280;22981;43.080;25.550;2023-04-08T08:13:17;99964.04;;;9.99;61.44
37066;BME280;22981;43.080;25.550;2023-04-08T08:15:50;99959.20;;;10.06;61.37
37066;BME280;22981;43.080;25.550;2023-04-08T08:18:15;99962.09;;;10.17;61.15
37066;BME280;22981;43.080;25.550;2023-04-08T08:20:43;99965.42;;;10.26;60.92
37066;BME280;22981;43.080;25.550;2023-04-08T08:23:11;99959.76;;;10.32;60.83
37066;BME280;22981;43.080;25.550;2023-04-08T08:25:38;99956.58;;;10.39;60.75
37066;BME280;22981;43.080;25.550;2023-04-08T08:28:06;99952.88;;;10.46;60.54
37066;BME280;22981;43.080;25.550;2023-04-08T08:30:33;99954.83;;;10.55;60.58
37066;BME280;22981;43.080;25.550;2023-04-08T08:33:01;99952.02;;;10.66;60.55
37066;BME280;22981;43.080;25.550;2023-04-08T08:35:28;99954.59;;;10.76;60.42
37066;BME280;22981;43.080;25.550;2023-04-08T08:37:56;99951.28;;;10.88;60.13
37066;BME280;22981;43.080;25.550;2023-04-08T08:40:24;99947.01;;;11.02;59.81
37066;BME280;22981;43.080;25.550;2023-04-08T08:42:52;99949.86;;;11.14;59.47
37066;BME280;22981;43.080;25.550;2023-04-08T08:45:20;99951.98;;;11.21;59.34
37066;BME280;22981;43.080;25.550;2023-04-08T08:47:47;99944.41;;;11.34;59.44
37066;BME280;22981;43.080;25.550;2023-04-08T08:50:15;99946.91;;;11.51;59.26
37066;BME280;22981;43.080;25.550;2023-04-08T08:52:47;99950.27;;;11.63;58.75
37066;BME280;22981;43.080;25.550;2023-04-08T08:55:16;99949.66;;;11.76;58.57
37066;BME280;22981;43.080;25.550;2023-04-08T08:57:44;99954.78;;;11.91;58.56
37066;BME280;22981;43.080;25.550;2023-04-08T09:00:12;99948.11;;;12.00;58.14
37066;BME280;22981;43.080;25.550;2023-04-08T09:02:41;99957.90;;;12.04;57.80
37066;BME280;22981;43.080;25.550;2023-04-08T09:05:09;99960.48;;;12.01;57.65
37066;BME280;22981;43.080;25.550;2023-04-08T09:07:37;99960.78;;;12.02;57.38
37066;BME280;22981;43.080;25.550;2023-04-08T09:10:08;99959.37;;;12.00;57.17
37066;BME280;22981;43.080;25.550;2023-04-08T09:12:51;99949.88;;;11.97;57.27
37066;BME280;22981;43.080;25.550;2023-04-08T09:15:07;99952.01;;;12.05;57.45
37066;BME280;22981;43.080;25.550;2023-04-08T09:17:38;99948.60;;;12.16;57.75
37066;BME280;22981;43.080;25.550;2023-04-08T09:20:11;99950.59;;;12.27;57.77
37066;BME280;22981;43.080;25.550;2023-04-08T09:23:00;99951.44;;;12.37;57.62
37066;BME280;22981;43.080;25.550;2023-04-08T09:25:31;99949.63;;;12.46;57.29
37066;BME280;22981;43.080;25.550;2023-04-08T09:27:58;99947.16;;;12.54;57.03
37066;BME280;22981;43.080;25.550;2023-04-08T09:30:28;99943.38;;;12.62;56.72
37066;BME280;22981;43.080;25.550;2023-04-08T09:32:56;99942.80;;;12.69;56.44
37066;BME280;22981;43.080;25.550;2023-04-08T09:35:25;99939.06;;;12.70;56.14
37066;BME280;22981;43.080;25.550;2023-04-08T09:37:52;99943.47;;;12.73;55.94
37066;BME280;22981;43.080;25.550;2023-04-08T09:40:20;99939.59;;;12.78;55.69
37066;BME280;22981;43.080;25.550;2023-04-08T09:42:50;99938.25;;;12.88;55.38
37066;BME280;22981;43.080;25.550;2023-04-08T09:45:19;99937.81;;;13.00;54.82
37066;BME280;22981;43.080;25.550;2023-04-08T09:50:27;99930.66;;;13.31;54.14
37066;BME280;22981;43.080;25.550;2023-04-08T09:52:59;99924.11;;;13.57;54.10
37066;BME280;22981;43.080;25.550;2023-04-08T09:55:26;99922.86;;;13.80;53.84
37066;BME280;22981;43.080;25.550;2023-04-08T09:58:15;99927.28;;;13.95;53.60
37066;BME280;22981;43.080;25.550;2023-04-08T10:00:49;99928.73;;;14.10;52.84
37066;BME280;22981;43.080;25.550;2023-04-08T10:03:38;99927.43;;;14.00;52.32
37066;BME280;22981;43.080;25.550;2023-04-08T10:06:02;99925.11;;;13.95;52.24
37066;BME280;22981;43.080;25.550;2023-04-08T10:08:30;99922.17;;;13.85;52.16
37066;BME280;22981;43.080;25.550;2023-04-08T10:10:58;99923.55;;;13.75;52.11
37066;BME280;22981;43.080;25.550;2023-04-08T10:13:26;99923.88;;;13.67;52.36
37066;BME280;22981;43.080;25.550;2023-04-08T10:16:24;99916.78;;;13.64;52.27
37066;BME280;22981;43.080;25.550;2023-04-08T10:18:54;99923.53;;;13.55;51.75
37066;BME280;22981;43.080;25.550;2023-04-08T10:21:39;99917.80;;;13.42;52.21
37066;BME280;22981;43.080;25.550;2023-04-08T10:24:09;99923.91;;;13.40;52.51
37066;BME280;22981;43.080;25.550;2023-04-08T10:26:44;99920.88;;;13.36;52.67
37066;BME280;22981;43.080;25.550;2023-04-08T10:29:28;99914.31;;;13.32;52.46
37066;BME280;22981;43.080;25.550;2023-04-08T10:31:51;99923.80;;;13.25;52.47
37066;BME280;22981;43.080;25.550;2023-04-08T10:34:20;99924.51;;;13.14;52.61
37066;BME280;22981;43.080;25.550;2023-04-08T10:36:53;99919.96;;;13.06;52.87
37066;BME280;22981;43.080;25.550;2023-04-08T10:39:23;99915.73;;;12.98;53.44
37066;BME280;22981;43.080;25.550;2023-04-08T10:41:51;99917.66;;;12.91;53.76
37066;BME280;22981;43.080;25.550;2023-04-08T10:44:20;99913.48;;;12.86;54.27
37066;BME280;22981;43.080;25.550;2023-04-08T10:46:49;99915.84;;;12.85;54.37
37066;BME280;22981;43.080;25.550;2023-04-08T10:49:17;99919.53;;;12.81;54.03
37066;BME280;22981;43.080;25.550;2023-04-08T10:51:46;99920.88;;;12.81;53.86
37066;BME280;22981;43.080;25.550;2023-04-08T10:54:15;99916.84;;;12.81;53.72
37066;BME280;22981;43.080;25.550;2023-04-08T10:56:46;99919.59;;;12.84;53.92
37066;BME280;22981;43.080;25.550;2023-04-08T10:59:15;99920.41;;;12.84;54.77
37066;BME280;22981;43.080;25.550;2023-04-08T11:01:44;99918.77;;;12.83;55.25
37066;BME280;22981;43.080;25.550;2023-04-08T11:04:16;99925.78;;;12.84;55.52
37066;BME280;22981;43.080;25.550;2023-04-08T11:06:48;99928.31;;;12.79;55.94
37066;BME280;22981;43.080;25.550;2023-04-08T11:09:16;99933.30;;;12.66;56.78
37066;BME280;22981;43.080;25.550;2023-04-08T11:11:45;99934.39;;;12.49;57.63
37066;BME280;22981;43.080;25.550;2023-04-08T11:14:15;99926.94;;;12.42;58.46
37066;BME280;22981;43.080;25.550;2023-04-08T11:16:44;99920.08;;;12.46;58.53
37066;BME280;22981;43.080;25.550;2023-04-08T11:19:13;99922.25;;;12.56;58.63
37066;BME280;22981;43.080;25.550;2023-04-08T11:21:40;99909.66;;;12.66;58.96
37066;BME280;22981;43.080;25.550;2023-04-08T11:24:11;99907.58;;;12.77;59.34
37066;BME280;22981;43.080;25.550;2023-04-08T11:26:40;99900.48;;;12.92;59.76
37066;BME280;22981;43.080;25.550;2023-04-08T11:29:11;99891.59;;;13.10;59.91
37066;BME280;22981;43.080;25.550;2023-04-08T11:36:33;99886.06;;;13.41;60.27
37066;BME280;22981;43.080;25.550;2023-04-08T11:39:06;99878.57;;;13.43;60.33
37066;BME280;22981;43.080;25.550;2023-04-08T11:41:37;99875.59;;;13.42;60.21
37066;BME280;22981;43.080;25.550;2023-04-08T11:44:06;99870.81;;;13.35;60.21
37066;BME280;22981;43.080;25.550;2023-04-08T11:46:34;99873.90;;;13.30;60.31
37066;BME280;22981;43.080;25.550;2023-04-08T11:49:04;99876.34;;;13.22;60.36
37066;BME280;22981;43.080;25.550;2023-04-08T11:51:33;99870.02;;;13.16;60.52
37066;BME280;22981;43.080;25.550;2023-04-08T11:54:03;99874.28;;;13.15;60.63
37066;BME280;22981;43.080;25.550;2023-04-08T11:56:43;99868.06;;;13.14;60.71
37066;BME280;22981;43.080;25.550;2023-04-08T11:59:13;99858.97;;;13.15;60.57
37066;BME280;22981;43.080;25.550;2023-04-08T12:01:40;99863.30;;;13.16;60.36
37066;BME280;22981;43.080;25.550;2023-04-08T12:04:10;99867.85;;;13.16;60.31
37066;BME280;22981;43.080;25.550;2023-04-08T12:06:37;99863.30;;;13.16;60.21
37066;BME280;22981;43.080;25.550;2023-04-08T12:09:06;99864.92;;;13.17;60.28
37066;BME280;22981;43.080;25.550;2023-04-08T12:11:36;99866.03;;;13.19;60.21
37066;BME280;22981;43.080;25.550;2023-04-08T12:14:06;99865.30;;;13.21;60.12
37066;BME280;22981;43.080;25.550;2023-04-08T12:16:35;99867.38;;;13.19;59.89
37066;BME280;22981;43.080;25.550;2023-04-08T12:19:02;99872.62;;;13.14;59.65
37066;BME280;22981;43.080;25.550;2023-04-08T12:21:30;99873.83;;;13.09;59.51
37066;BME280;22981;43.080;25.550;2023-04-08T12:23:59;99872.92;;;13.06;59.58
37066;BME280;22981;43.080;25.550;2023-04-08T12:26:27;99866.16;;;13.03;59.42
37066;BME280;22981;43.080;25.550;2023-04-08T12:28:54;99865.02;;;13.01;59.38
37066;BME280;22981;43.080;25.550;2023-04-08T12:31:22;99871.97;;;13.00;59.21
37066;BME280;22981;43.080;25.550;2023-04-08T12:33:49;99867.56;;;12.96;58.91
37066;BME280;22981;43.080;25.550;2023-04-08T12:36:17;99867.51;;;12.94;58.60
37066;BME280;22981;43.080;25.550;2023-04-08T12:38:44;99865.78;;;12.90;58.25
37066;BME280;22981;43.080;25.550;2023-04-08T12:41:12;99869.73;;;12.88;58.26
37066;BME280;22981;43.080;25.550;2023-04-08T12:43:40;99871.45;;;12.82;58.43
37066;BME280;22981;43.080;25.550;2023-04-08T12:46:07;99872.95;;;12.78;58.43
37066;BME280;22981;43.080;25.550;2023-04-08T12:48:35;99870.65;;;12.72;58.05
37066;BME280;22981;43.080;25.550;2023-04-08T12:51:02;99873.16;;;12.67;57.90
37066;BME280;22981;43.080;25.550;2023-04-08T12:53:30;99872.19;;;12.62;57.88
37066;BME280;22981;43.080;25.550;2023-04-08T12:55:57;99876.36;;;12.58;58.03
37066;BME280;22981;43.080;25.550;2023-04-08T12:58:25;99876.51;;;12.53;58.17
37066;BME280;22981;43.080;25.550;2023-04-08T13:00:52;99879.05;;;12.48;58.24
37066;BME280;22981;43.080;25.550;2023-04-08T13:03:20;99879.09;;;12.42;58.30
37066;BME280;22981;43.080;25.550;2023-04-08T13:05:48;99874.53;;;12.33;58.22
37066;BME280;22981;43.080;25.550;2023-04-08T13:08:15;99874.91;;;12.27;57.95
37066;BME280;22981;43.080;25.550;2023-04-08T13:10:43;99869.09;;;12.21;57.97
37066;BME280;22981;43.080;25.550;2023-04-08T13:13:10;99875.12;;;12.17;57.79
37066;BME280;22981;43.080;25.550;2023-04-08T13:15:39;99874.19;;;12.05;57.95
37066;BME280;22981;43.080;25.550;2023-04-08T13:18:07;99873.77;;;11.92;58.53